»·PEaware :: N1SC KMRY-KSMF

N1SC :: KMRY-KSMF

FLIGHT INFORMATION

Flight Status: Arrived
Operator: Privately registered:
United States
More flights under this callsign
Pilot: Chris C. (10181)
Aircraft: CESSNA 337 TURBO SKYMASTER
(C337)
More flights by this aircraft type
Origin: KMRY Monterey Peninsula
United States
Destination: KSMF Sacramento Intl
United States
More flights between these airports :: More routes between these airports
Route: MRY4 SJC V334 SAC
File this flight plan on PilotEdge
Remarks:
Altitude:
(Current/Filed)
8,000ft
Speed:
(Current/Filed)
170kts
Departed: 06-Feb-18 09:36 AM
Arrived: 06-Feb-18 10:34 AM
Distance/Time
Traveled:
127nm/0:57
Distance/Time
To Go:
Arrived

Flight Plot

Page will automatically refresh every two minutes.

Flight plan parsing failed; only flown route is shown


Map Options




Map Legend


Flown Route
Filed Route
Departure Airport
Arrival Airport
Navaid (VOR, NDB)
Fix

Horizontal Profiles

Position Reports

Time Latitude Longitude Heading Altitude Ground
Speed
06-Feb-18 09:29 36.588835 -121.853877 245 208ft 0kts
06-Feb-18 09:30 36.588835 -121.853877 245 208ft 0kts
06-Feb-18 09:31 36.588835 -121.853877 245 208ft 0kts
06-Feb-18 09:32 36.588835 -121.853877 245 208ft 0kts
06-Feb-18 09:33 36.588835 -121.853877 245 208ft 0kts
06-Feb-18 09:34 36.588835 -121.853877 245 208ft 0kts
06-Feb-18 09:35 36.588835 -121.853877 245 208ft 0kts
06-Feb-18 09:36 36.588835 -121.853877 245 208ft 0kts
06-Feb-18 09:37 36.588835 -121.853877 245 208ft 0kts
06-Feb-18 09:38 36.588850 -121.853952 313 208ft 0kts
06-Feb-18 09:39 36.590008 -121.856183 293 208ft 14kts
06-Feb-18 09:40 36.590425 -121.856811 355 208ft 0kts
06-Feb-18 09:41 36.590869 -121.856700 21 208ft 4kts
06-Feb-18 09:42 36.586293 -121.842814 116 575ft 85kts
06-Feb-18 09:43 36.585793 -121.816696 21 1923ft 94kts
06-Feb-18 09:44 36.609851 -121.830053 339 3349ft 96kts
06-Feb-18 09:45 36.635373 -121.837603 359 4463ft 94kts
06-Feb-18 09:46 36.661511 -121.838859 354 5605ft 94kts
06-Feb-18 09:47 36.687909 -121.841655 354 6436ft 97kts
06-Feb-18 09:48 36.714637 -121.845750 356 7244ft 97kts
06-Feb-18 09:49 36.742106 -121.847184 355 7938ft 98kts
06-Feb-18 09:50 36.773766 -121.852108 356 8041ft 128kts
06-Feb-18 09:51 36.810406 -121.855160 356 8094ft 137kts
06-Feb-18 09:52 36.849417 -121.861331 353 8008ft 142kts
06-Feb-18 09:53 36.888051 -121.871600 349 7999ft 141kts
06-Feb-18 09:54 36.927027 -121.878513 354 7999ft 141kts
06-Feb-18 09:55 36.965943 -121.884288 354 7997ft 140kts
06-Feb-18 09:56 37.004876 -121.890028 354 7997ft 141kts
06-Feb-18 09:57 37.043912 -121.895738 354 8000ft 140kts
06-Feb-18 09:58 37.082818 -121.901496 354 8003ft 141kts
06-Feb-18 09:59 37.121881 -121.907236 354 8006ft 141kts
06-Feb-18 10:00 37.161957 -121.913190 355 8005ft 149kts
06-Feb-18 10:01 37.203877 -121.919372 354 8007ft 155kts
06-Feb-18 10:02 37.247155 -121.925748 354 8014ft 156kts
06-Feb-18 10:03 37.290175 -121.932103 354 8014ft 151kts
06-Feb-18 10:04 37.331456 -121.938237 354 8013ft 148kts
06-Feb-18 10:05 37.372173 -121.944087 359 8010ft 145kts
06-Feb-18 10:06 37.408928 -121.924492 22 8018ft 144kts
06-Feb-18 10:07 37.445796 -121.903306 23 8005ft 145kts
06-Feb-18 10:08 37.482731 -121.881873 22 8009ft 151kts
06-Feb-18 10:09 37.521338 -121.859328 23 7989ft 149kts
06-Feb-18 10:10 37.558623 -121.837597 23 8010ft 146kts
06-Feb-18 10:11 37.595449 -121.816140 22 8012ft 145kts
06-Feb-18 10:12 37.634078 -121.801414 13 8023ft 147kts
06-Feb-18 10:13 37.674081 -121.789299 13 8013ft 146kts
06-Feb-18 10:14 37.713664 -121.777209 13 8027ft 153kts
06-Feb-18 10:15 37.755664 -121.764376 13 8012ft 150kts
06-Feb-18 10:17 37.795889 -121.752057 13 8019ft 149kts
06-Feb-18 10:18 37.836475 -121.739634 13 8025ft 150kts
06-Feb-18 10:19 37.877410 -121.727032 13 8018ft 151kts
06-Feb-18 10:20 37.918188 -121.714516 13 8012ft 147kts
06-Feb-18 10:21 37.957787 -121.702332 13 8025ft 150kts
06-Feb-18 10:22 37.999547 -121.692140 3 7925ft 156kts
06-Feb-18 10:23 38.044775 -121.695897 358 7132ft 162kts
06-Feb-18 10:24 38.089502 -121.699372 3 6360ft 158kts
06-Feb-18 10:25 38.132584 -121.696644 7 5974ft 149kts
06-Feb-18 10:26 38.173734 -121.691219 10 5999ft 148kts
06-Feb-18 10:27 38.214748 -121.687198 6 6030ft 150kts
06-Feb-18 10:28 38.256569 -121.690341 356 5979ft 156kts
06-Feb-18 10:29 38.298058 -121.680803 15 5694ft 155kts
06-Feb-18 10:30 38.342257 -121.671920 14 4981ft 163kts
06-Feb-18 10:31 38.384345 -121.653894 17 4267ft 156kts
06-Feb-18 10:32 38.423199 -121.636663 16 4045ft 138kts
06-Feb-18 10:33 38.461587 -121.622244 18 3930ft 146kts
06-Feb-18 10:34 38.501078 -121.610321 356 3497ft 150kts
06-Feb-18 10:35 38.542997 -121.613021 5 2958ft 140kts
06-Feb-18 10:36 38.578756 -121.604783 8 2661ft 130kts
06-Feb-18 10:37 38.611919 -121.603094 0 2216ft 93kts
06-Feb-18 10:38 38.636946 -121.601280 355 1224ft 79kts
06-Feb-18 10:39 38.658528 -121.601952 352 524ft 82kts
06-Feb-18 10:40 38.679790 -121.601495 354 161ft 69kts
06-Feb-18 10:41 38.690390 -121.601260 38 31ft 15kts

Navigation Log

Ident Type
Flight plan parsing failed, navigation log unavailable